createdAt,value
2022-11-17T00:00:50.747Z,8.38
2022-11-17T00:03:19.637Z,10.25
2022-11-17T00:05:48.068Z,9.43
2022-11-17T00:08:18.035Z,11.45
2022-11-17T00:10:46.595Z,11.05
2022-11-17T00:13:33.945Z,13.40
2022-11-17T00:16:02.784Z,10.23
2022-11-17T00:18:51.445Z,14.77
2022-11-17T00:21:20.011Z,10.98
2022-11-17T00:23:50.930Z,11.43
2022-11-17T00:26:21.854Z,10.60
2022-11-17T00:28:58.686Z,8.20
2022-11-17T00:31:47.781Z,9.80
2022-11-17T00:34:22.515Z,12.05
2022-11-17T00:36:53.914Z,10.45
2022-11-17T00:39:24.186Z,10.63
2022-11-17T00:41:52.668Z,10.07
2022-11-17T00:44:21.643Z,12.30
2022-11-17T00:46:50.128Z,10.10
2022-11-17T00:49:25.410Z,12.15
2022-11-17T00:51:58.066Z,11.70
2022-11-17T00:54:27.215Z,11.75
2022-11-17T00:56:56.476Z,11.68
2022-11-17T00:59:27.156Z,11.93
2022-11-17T01:01:55.701Z,10.48
2022-11-17T01:04:24.658Z,12.05
2022-11-17T01:06:53.070Z,12.25
2022-11-17T01:09:23.928Z,12.00
2022-11-17T01:11:53.122Z,12.98
2022-11-17T01:14:25.728Z,14.65
2022-11-17T01:16:54.367Z,11.70
2022-11-17T01:19:23.946Z,14.45
2022-11-17T01:21:52.437Z,12.05
2022-11-17T01:24:21.339Z,12.02
2022-11-17T01:26:51.996Z,10.40
2022-11-17T01:29:22.087Z,12.75
2022-11-17T01:31:51.988Z,13.77
2022-11-17T01:34:20.867Z,13.45
2022-11-17T01:37:08.404Z,12.43
2022-11-17T01:39:37.296Z,10.73
2022-11-17T01:42:13.645Z,12.10
2022-11-17T01:45:02.108Z,16.90
2022-11-17T01:47:57.329Z,15.25
2022-11-17T01:50:43.056Z,11.13
2022-11-17T01:53:14.737Z,14.32
2022-11-17T01:55:48.194Z,13.10
2022-11-17T01:58:26.327Z,13.20
2022-11-17T02:00:56.849Z,11.75
2022-11-17T02:03:26.703Z,10.68
2022-11-17T02:06:29.590Z,14.02
2022-11-17T02:08:58.118Z,10.80
2022-11-17T02:11:26.968Z,13.98
2022-11-17T02:13:56.055Z,13.73
2022-11-17T02:16:24.834Z,10.70
2022-11-17T02:18:53.267Z,13.15
2022-11-17T02:21:55.656Z,11.63
2022-11-17T02:24:42.110Z,9.68
2022-11-17T02:27:32.453Z,11.10
2022-11-17T02:30:05.544Z,13.13
2022-11-17T02:33:17.856Z,10.88
2022-11-17T02:35:59.845Z,11.85
2022-11-17T02:38:40.085Z,12.48
2022-11-17T02:41:25.096Z,12.93
2022-11-17T02:44:12.766Z,12.43
2022-11-17T02:47:11.473Z,11.15
2022-11-17T02:49:46.105Z,10.95
2022-11-17T02:52:15.124Z,14.52
2022-11-17T02:54:43.934Z,9.73
2022-11-17T02:57:48.273Z,10.50
2022-11-17T03:00:20.277Z,11.68
2022-11-17T03:03:29.863Z,10.60
2022-11-17T03:06:31.754Z,11.73
2022-11-17T03:09:32.744Z,11.90
2022-11-17T03:12:11.383Z,11.23
2022-11-17T03:14:53.563Z,10.88
2022-11-17T03:17:36.243Z,10.07
2022-11-17T03:20:27.235Z,10.30
2022-11-17T03:23:30.045Z,9.77
2022-11-17T03:25:58.573Z,10.40
2022-11-17T03:28:29.992Z,11.20
2022-11-17T03:30:58.414Z,7.95
2022-11-17T03:33:27.181Z,9.63
2022-11-17T03:36:12.307Z,9.35
2022-11-17T03:38:50.232Z,8.77
2022-11-17T03:41:18.723Z,9.98
2022-11-17T03:43:50.037Z,8.48
2022-11-17T03:46:19.626Z,7.68
2022-11-17T03:48:56.153Z,10.20
2022-11-17T03:51:30.042Z,9.18
2022-11-17T03:53:58.873Z,10.82
2022-11-17T03:56:57.563Z,9.38
2022-11-17T03:59:48.033Z,9.75
2022-11-17T04:02:20.862Z,8.00
2022-11-17T04:05:07.852Z,9.90
2022-11-17T04:07:47.173Z,8.18
2022-11-17T04:10:26.223Z,7.15
2022-11-17T04:13:13.512Z,9.10
2022-11-17T04:15:57.324Z,9.52
2022-11-17T04:18:26.754Z,7.32
2022-11-17T04:20:57.736Z,7.63
2022-11-17T04:23:26.501Z,10.68
2022-11-17T04:26:15.152Z,8.32
2022-11-17T04:28:47.292Z,8.00
2022-11-17T04:31:29.503Z,7.50
2022-11-17T04:34:03.473Z,8.57
2022-11-17T04:36:38.052Z,7.80
2022-11-17T04:41:54.534Z,8.82
2022-11-17T04:44:25.817Z,8.60
2022-11-17T04:46:54.982Z,8.23
2022-11-17T04:49:25.268Z,8.15
2022-11-17T04:51:55.753Z,7.68
2022-11-17T04:54:27.846Z,8.18
2022-11-17T04:56:57.819Z,8.82
2022-11-17T04:59:26.460Z,9.00
2022-11-17T05:01:55.278Z,6.82
2022-11-17T05:04:42.090Z,6.85
2022-11-17T05:07:11.102Z,7.22
2022-11-17T05:09:39.571Z,9.50
2022-11-17T05:12:28.462Z,10.00
2022-11-17T05:14:57.410Z,8.70
2022-11-17T05:17:26.182Z,8.68
2022-11-17T05:19:54.756Z,8.35
2022-11-17T05:22:53.077Z,10.93
2022-11-17T05:25:21.558Z,8.45
2022-11-17T05:27:53.112Z,10.65
2022-11-17T05:30:21.588Z,8.63
2022-11-17T05:32:50.306Z,12.02
2022-11-17T05:35:19.556Z,8.18
2022-11-17T05:37:48.297Z,9.75
2022-11-17T05:40:16.847Z,9.82
2022-11-17T05:42:45.677Z,9.13
2022-11-17T05:45:14.756Z,9.00
2022-11-17T05:47:43.577Z,12.40
2022-11-17T05:50:12.102Z,9.85
2022-11-17T05:52:42.200Z,9.32
2022-11-17T05:55:11.237Z,9.52
2022-11-17T05:57:40.076Z,10.88
2022-11-17T06:00:10.208Z,9.85
2022-11-17T06:02:50.438Z,10.13
2022-11-17T06:07:51.417Z,8.98
2022-11-17T06:10:19.897Z,10.38
2022-11-17T06:12:49.446Z,7.82
2022-11-17T06:15:17.985Z,9.05
2022-11-17T06:18:05.877Z,10.43
2022-11-17T06:20:50.138Z,9.45
2022-11-17T06:23:18.888Z,8.55
2022-11-17T06:25:48.048Z,9.43
2022-11-17T06:28:19.367Z,8.30
2022-11-17T06:30:47.928Z,10.48
2022-11-17T06:33:17.543Z,7.88
2022-11-17T06:35:46.007Z,8.30
2022-11-17T06:38:14.739Z,8.73
2022-11-17T06:40:43.289Z,9.63
2022-11-17T06:43:12.117Z,9.27
2022-11-17T06:45:45.656Z,9.30
2022-11-17T06:48:17.278Z,10.70
2022-11-17T06:50:45.813Z,12.70
2022-11-17T06:53:14.637Z,10.45
2022-11-17T06:55:43.669Z,10.82
2022-11-17T06:58:13.619Z,10.52
2022-11-17T07:00:42.220Z,11.05
2022-11-17T07:03:11.607Z,10.65
2022-11-17T07:05:40.550Z,10.57
2022-11-17T07:08:10.575Z,14.60
2022-11-17T07:10:40.202Z,12.30
2022-11-17T07:13:11.750Z,14.38
2022-11-17T07:15:40.249Z,9.43
2022-11-17T07:18:09.148Z,11.23
2022-11-17T07:20:37.666Z,11.02
2022-11-17T07:23:07.606Z,12.77
2022-11-17T07:25:36.104Z,14.30
2022-11-17T07:28:05.114Z,12.77
2022-11-17T07:30:34.336Z,11.70
2022-11-17T07:33:03.390Z,13.30
2022-11-17T07:35:32.374Z,11.57
2022-11-17T07:38:01.625Z,14.20
2022-11-17T07:40:30.394Z,14.82
2022-11-17T07:43:01.323Z,16.70
2022-11-17T07:45:32.354Z,11.75
2022-11-17T07:48:02.944Z,14.38
2022-11-17T07:50:31.843Z,13.57
2022-11-17T07:53:00.831Z,14.70
2022-11-17T07:55:29.327Z,12.77
2022-11-17T07:57:59.558Z,11.88
2022-11-17T08:00:30.621Z,14.00
2022-11-17T08:03:02.148Z,16.48
2022-11-17T08:05:39.938Z,12.18
2022-11-17T08:08:13.868Z,16.60
2022-11-17T08:10:43.574Z,13.52
2022-11-17T08:13:14.257Z,13.15
2022-11-17T08:15:42.843Z,16.98
2022-11-17T08:18:11.712Z,18.48
2022-11-17T08:20:40.343Z,12.48
2022-11-17T08:23:10.340Z,11.07
2022-11-17T08:25:38.914Z,16.65
2022-11-17T08:28:07.714Z,13.80
2022-11-17T08:30:36.224Z,12.90
2022-11-17T08:33:06.395Z,14.05
2022-11-17T08:35:37.552Z,14.00
2022-11-17T08:38:07.117Z,14.43
2022-11-17T08:40:35.577Z,17.67
2022-11-17T08:43:05.130Z,16.27
2022-11-17T08:45:33.615Z,14.35
2022-11-17T08:48:02.536Z,15.45
2022-11-17T08:50:31.004Z,17.30
2022-11-17T08:52:59.954Z,17.13
2022-11-17T08:55:28.592Z,15.35
2022-11-17T08:57:57.508Z,14.68
2022-11-17T09:00:25.866Z,15.48
2022-11-17T09:02:54.583Z,16.15
2022-11-17T09:05:25.153Z,12.90
2022-11-17T09:07:54.403Z,13.13
2022-11-17T09:10:23.064Z,16.05
2022-11-17T09:12:56.606Z,14.90
2022-11-17T09:15:25.413Z,13.73
2022-11-17T09:17:54.406Z,12.05
2022-11-17T09:20:22.935Z,16.00
2022-11-17T09:22:51.803Z,15.95
2022-11-17T09:25:20.293Z,17.80
2022-11-17T09:27:51.084Z,19.80
2022-11-17T09:30:23.045Z,23.17
2022-11-17T09:32:52.035Z,20.67
2022-11-17T09:35:20.574Z,23.15
2022-11-17T09:37:49.384Z,19.40
2022-11-17T09:40:19.765Z,23.67
2022-11-17T09:42:48.478Z,23.95
2022-11-17T09:45:33.295Z,23.75
2022-11-17T09:48:41.472Z,23.63
2022-11-17T09:51:15.265Z,27.33
2022-11-17T09:54:19.535Z,23.25
2022-11-17T09:56:48.015Z,23.77
2022-11-17T09:59:20.104Z,19.73
2022-11-17T10:01:48.654Z,25.15
2022-11-17T10:04:17.574Z,28.13
2022-11-17T10:06:47.655Z,25.70
2022-11-17T10:09:41.925Z,23.45
2022-11-17T10:12:22.326Z,20.63
2022-11-17T10:14:52.655Z,23.23
2022-11-17T10:17:21.626Z,20.38
2022-11-17T10:19:50.371Z,23.73
2022-11-17T10:22:33.936Z,21.63
2022-11-17T10:25:05.468Z,21.90
2022-11-17T10:27:34.524Z,20.85
2022-11-17T10:30:19.746Z,19.40
2022-11-17T10:32:53.723Z,22.15
2022-11-17T10:35:28.155Z,21.15
2022-11-17T10:38:15.538Z,23.45
2022-11-17T10:40:48.233Z,22.92
2022-11-17T10:43:21.533Z,19.17
2022-11-17T10:46:17.016Z,21.20
2022-11-17T10:49:01.196Z,19.15
2022-11-17T10:51:34.595Z,20.00
2022-11-17T10:56:54.308Z,19.13
2022-11-17T10:59:44.235Z,20.90
2022-11-17T11:02:37.665Z,22.67
2022-11-17T11:05:26.895Z,19.47
2022-11-17T11:08:22.968Z,17.60
2022-11-17T11:11:53.974Z,18.50
2022-11-17T11:14:49.373Z,20.27
2022-11-17T11:17:18.504Z,19.17
2022-11-17T11:19:52.936Z,17.35
2022-11-17T11:22:50.243Z,17.10
2022-11-17T11:25:51.773Z,18.05
2022-11-17T11:28:45.624Z,21.90
2022-11-17T11:31:58.305Z,20.67
2022-11-17T11:34:57.567Z,19.55
2022-11-17T11:37:37.525Z,18.00
2022-11-17T11:40:28.025Z,20.35
2022-11-17T11:43:08.344Z,19.48
2022-11-17T11:45:51.306Z,24.20
2022-11-17T11:48:34.345Z,17.13
2022-11-17T11:51:16.524Z,20.00
2022-11-17T11:54:12.091Z,19.20
2022-11-17T11:56:46.524Z,19.10
2022-11-17T11:59:56.294Z,18.77
2022-11-17T12:02:35.201Z,23.33
2022-11-17T12:05:25.705Z,25.60
2022-11-17T12:08:18.503Z,26.75
2022-11-17T12:11:27.684Z,24.95
2022-11-17T12:13:56.426Z,26.63
2022-11-17T12:16:36.093Z,23.90
2022-11-17T12:20:11.150Z,30.48
2022-11-17T12:23:14.851Z,22.98
2022-11-17T12:29:20.787Z,32.60
2022-11-17T12:31:57.997Z,29.40
2022-11-17T12:34:31.125Z,26.55
2022-11-17T12:37:15.051Z,26.08
2022-11-17T12:39:59.089Z,25.98
2022-11-17T12:42:30.739Z,25.40
2022-11-17T12:45:08.506Z,27.13
2022-11-17T12:47:39.874Z,30.05
2022-11-17T12:50:29.255Z,24.58
2022-11-17T12:53:41.095Z,25.58
2022-11-17T12:56:39.197Z,24.00
2022-11-17T12:59:54.439Z,23.05
2022-11-17T13:02:43.335Z,24.65
2022-11-17T13:05:18.931Z,27.63
2022-11-17T13:07:47.606Z,26.17
2022-11-17T13:10:31.702Z,24.42
2022-11-17T13:13:19.990Z,28.88
2022-11-17T13:16:00.558Z,23.05
2022-11-17T13:18:37.384Z,27.13
2022-11-17T13:21:30.287Z,27.05
2022-11-17T13:24:00.727Z,24.77
2022-11-17T13:26:38.512Z,28.42
2022-11-17T13:29:19.634Z,27.83
2022-11-17T13:31:48.728Z,22.23
2022-11-17T13:34:21.567Z,25.67
2022-11-17T13:37:01.006Z,27.15
2022-11-17T13:39:29.653Z,25.75
2022-11-17T13:41:58.506Z,24.20
2022-11-17T13:44:27.993Z,26.77
2022-11-17T13:46:57.935Z,22.80
2022-11-17T13:49:37.485Z,27.30
2022-11-17T13:52:24.645Z,22.65
2022-11-17T13:54:53.304Z,25.15
2022-11-17T13:57:28.184Z,24.88
2022-11-17T13:59:56.869Z,32.85
2022-11-17T14:02:28.725Z,32.30
2022-11-17T14:05:14.617Z,23.08
2022-11-17T14:07:44.193Z,27.50
2022-11-17T14:10:26.203Z,27.02
2022-11-17T14:13:30.324Z,27.77
2022-11-17T14:18:37.844Z,27.60
2022-11-17T14:21:15.891Z,31.75
2022-11-17T14:23:44.924Z,27.10
2022-11-17T14:26:24.796Z,23.30
2022-11-17T14:28:53.755Z,23.92
2022-11-17T14:31:22.227Z,23.60
2022-11-17T14:33:52.751Z,25.23
2022-11-17T14:36:21.296Z,24.17
2022-11-17T14:38:50.287Z,27.45
2022-11-17T14:41:19.436Z,28.90
2022-11-17T14:43:48.714Z,26.15
2022-11-17T14:46:26.176Z,27.35
2022-11-17T14:48:55.943Z,29.15
2022-11-17T14:51:24.430Z,31.75
2022-11-17T14:53:54.833Z,25.98
2022-11-17T14:56:24.064Z,26.30
2022-11-17T14:58:58.913Z,27.27
2022-11-17T15:01:34.052Z,28.15
2022-11-17T15:04:21.135Z,26.92
2022-11-17T15:06:52.974Z,25.77
2022-11-17T15:09:21.920Z,25.33
2022-11-17T15:11:52.217Z,27.45
2022-11-17T15:14:20.979Z,26.25
2022-11-17T15:16:49.351Z,30.65
2022-11-17T15:19:18.251Z,29.55
2022-11-17T15:21:46.706Z,25.55
2022-11-17T15:24:15.719Z,26.67
2022-11-17T15:26:44.715Z,25.38
2022-11-17T15:29:17.048Z,23.73
2022-11-17T15:31:46.751Z,26.00
2022-11-17T15:34:19.887Z,27.38
2022-11-17T15:36:49.803Z,27.23
2022-11-17T15:39:19.066Z,32.00
2022-11-17T15:41:49.395Z,26.42
2022-11-17T15:44:20.992Z,22.98
2022-11-17T15:46:49.461Z,24.13
2022-11-17T15:49:18.725Z,22.33
2022-11-17T15:51:47.288Z,22.33
2022-11-17T15:54:20.302Z,23.60
2022-11-17T15:56:51.166Z,21.83
2022-11-17T15:59:20.136Z,21.13
2022-11-17T16:01:48.893Z,19.73
2022-11-17T16:04:18.786Z,22.83
2022-11-17T16:06:47.324Z,20.38
2022-11-17T16:09:16.720Z,20.25
2022-11-17T16:11:46.020Z,19.88
2022-11-17T16:14:15.326Z,21.67
2022-11-17T16:16:46.201Z,18.10
2022-11-17T16:19:15.258Z,19.73
2022-11-17T16:21:44.723Z,19.65
2022-11-17T16:24:15.412Z,22.67
2022-11-17T16:26:45.683Z,20.83
2022-11-17T16:29:14.741Z,20.00
2022-11-17T16:31:43.773Z,21.75
2022-11-17T16:34:15.763Z,19.42
2022-11-17T16:36:44.523Z,23.05
2022-11-17T16:39:20.405Z,25.48
2022-11-17T16:41:51.483Z,24.90
2022-11-17T16:44:20.760Z,27.52
2022-11-17T16:46:50.148Z,34.08
2022-11-17T16:49:20.063Z,32.05
2022-11-17T16:51:54.056Z,25.13
2022-11-17T16:54:22.850Z,36.95
2022-11-17T16:56:51.257Z,31.83
2022-11-17T16:59:20.777Z,32.22
2022-11-17T17:01:49.514Z,28.38
2022-11-17T17:04:19.339Z,33.58
2022-11-17T17:06:47.825Z,36.55
2022-11-17T17:09:17.975Z,32.22
2022-11-17T17:11:48.013Z,32.45
2022-11-17T17:14:17.022Z,32.90
2022-11-17T17:16:45.524Z,28.58
2022-11-17T17:19:15.595Z,36.33
2022-11-17T17:21:45.704Z,36.50
2022-11-17T17:24:14.968Z,25.50
2022-11-17T17:26:43.818Z,33.25
2022-11-17T17:29:13.048Z,30.65
2022-11-17T17:31:42.985Z,28.55
2022-11-17T17:34:12.940Z,28.80
2022-11-17T17:36:41.483Z,32.58
2022-11-17T17:39:15.181Z,27.73
2022-11-17T17:41:44.757Z,35.63
2022-11-17T17:44:18.571Z,31.23
2022-11-17T17:46:47.898Z,27.70
2022-11-17T17:49:19.195Z,26.23
2022-11-17T17:51:48.374Z,33.17
2022-11-17T17:54:20.032Z,31.30
2022-11-17T17:56:48.690Z,27.08
2022-11-17T17:59:17.911Z,28.25
2022-11-17T18:01:47.862Z,33.08
2022-11-17T18:04:17.269Z,26.67
2022-11-17T18:06:48.056Z,26.58
2022-11-17T18:09:20.472Z,35.20
2022-11-17T18:11:50.810Z,28.70
2022-11-17T18:14:24.688Z,25.42
2022-11-17T18:16:54.121Z,33.22
2022-11-17T18:19:26.880Z,30.15
2022-11-17T18:21:56.862Z,26.10
2022-11-17T18:24:26.712Z,30.02
2022-11-17T18:26:55.137Z,25.15
2022-11-17T18:29:23.882Z,29.70
2022-11-17T18:31:52.639Z,25.25
2022-11-17T18:34:23.553Z,23.50
2022-11-17T18:36:53.666Z,27.65
2022-11-17T18:39:25.700Z,28.42
2022-11-17T18:41:54.398Z,26.48
2022-11-17T18:44:24.431Z,28.85
2022-11-17T18:46:54.259Z,26.65
2022-11-17T18:49:27.098Z,26.58
2022-11-17T18:51:55.758Z,26.33
2022-11-17T18:54:24.717Z,24.10
2022-11-17T18:56:53.374Z,26.40
2022-11-17T18:59:22.331Z,25.48
2022-11-17T19:01:51.149Z,25.50
2022-11-17T19:04:20.316Z,25.30
2022-11-17T19:06:48.927Z,24.15
2022-11-17T19:09:18.260Z,25.63
2022-11-17T19:11:47.264Z,27.08
2022-11-17T19:14:17.263Z,25.75
2022-11-17T19:16:45.935Z,26.13
2022-11-17T19:19:17.327Z,30.85
2022-11-17T19:21:46.167Z,33.55
2022-11-17T19:24:17.160Z,29.88
2022-11-17T19:26:46.199Z,23.92
2022-11-17T19:29:17.425Z,28.58
2022-11-17T19:31:47.663Z,24.08
2022-11-17T19:34:16.924Z,26.08
2022-11-17T19:36:46.925Z,27.13
2022-11-17T19:39:17.228Z,26.77
2022-11-17T19:41:47.886Z,29.45
2022-11-17T19:44:18.168Z,27.10
2022-11-17T19:46:46.942Z,27.02
2022-11-17T19:49:16.049Z,26.35
2022-11-17T19:51:45.120Z,25.55
2022-11-17T19:54:14.709Z,27.13
2022-11-17T19:56:43.445Z,30.73
2022-11-17T19:59:16.150Z,29.35
2022-11-17T20:01:46.388Z,30.33
2022-11-17T20:04:15.624Z,33.95
2022-11-17T20:06:44.387Z,33.45
2022-11-17T20:09:15.056Z,35.13
2022-11-17T20:11:44.142Z,34.92
2022-11-17T20:14:14.751Z,31.85
2022-11-17T20:16:43.592Z,27.80
2022-11-17T20:19:14.858Z,27.95
2022-11-17T20:21:44.104Z,28.98
2022-11-17T20:24:13.899Z,29.13
2022-11-17T20:26:44.428Z,28.27
2022-11-17T20:29:13.480Z,29.38
2022-11-17T20:31:42.169Z,27.58
2022-11-17T20:34:12.580Z,32.53
2022-11-17T20:36:41.262Z,32.65
2022-11-17T20:39:10.479Z,25.80
2022-11-17T20:41:39.206Z,28.63
2022-11-17T20:44:24.199Z,29.48
2022-11-17T20:46:55.316Z,30.02
2022-11-17T20:49:24.677Z,33.15
2022-11-17T20:51:53.418Z,27.23
2022-11-17T20:54:22.439Z,30.40
2022-11-17T20:56:51.129Z,34.40
2022-11-17T20:59:20.578Z,30.55
2022-11-17T21:01:49.659Z,26.67
2022-11-17T21:04:18.799Z,28.75
2022-11-17T21:06:47.539Z,30.65
2022-11-17T21:09:18.013Z,26.73
2022-11-17T21:11:59.444Z,30.25
2022-11-17T21:14:28.939Z,24.02
2022-11-17T21:17:00.935Z,27.10
2022-11-17T21:19:33.209Z,27.50
2022-11-17T21:22:04.329Z,26.13
2022-11-17T21:24:33.399Z,26.80
2022-11-17T21:27:02.318Z,27.38
2022-11-17T21:29:33.459Z,28.85
2022-11-17T21:32:02.138Z,34.65
2022-11-17T21:34:31.189Z,32.00
2022-11-17T21:36:59.871Z,26.05
2022-11-17T21:39:28.929Z,32.85
2022-11-17T21:41:57.624Z,27.38
2022-11-17T21:44:26.699Z,28.23
2022-11-17T21:46:55.379Z,27.92
2022-11-17T21:49:24.660Z,36.83
2022-11-17T21:51:53.330Z,28.27
2022-11-17T21:54:22.418Z,32.03
2022-11-17T21:56:51.658Z,30.48
2022-11-17T21:59:20.759Z,30.85
2022-11-17T22:01:50.206Z,27.50
2022-11-17T22:04:19.531Z,29.52
2022-11-17T22:06:48.221Z,25.30
2022-11-17T22:09:19.534Z,24.52
2022-11-17T22:11:48.599Z,26.23
2022-11-17T22:14:19.828Z,30.17
2022-11-17T22:16:52.490Z,28.08
2022-11-17T22:21:54.132Z,23.80
2022-11-17T22:24:23.297Z,28.10
2022-11-17T22:26:52.530Z,23.35
2022-11-17T22:29:22.478Z,29.65
2022-11-17T22:31:51.584Z,26.15
2022-11-17T22:34:24.853Z,24.27
2022-11-17T22:36:53.386Z,23.88
2022-11-17T22:39:23.284Z,22.40
2022-11-17T22:41:51.756Z,28.65
2022-11-17T22:44:22.493Z,24.40
2022-11-17T22:46:51.063Z,25.98
2022-11-17T22:49:19.927Z,27.30
2022-11-17T22:52:03.533Z,31.08
2022-11-17T22:54:32.333Z,27.88
2022-11-17T22:57:01.004Z,28.30
2022-11-17T22:59:30.736Z,38.13
2022-11-17T23:01:59.192Z,24.83
2022-11-17T23:04:29.090Z,29.73
2022-11-17T23:06:57.681Z,25.00
2022-11-17T23:09:26.997Z,22.63
2022-11-17T23:11:55.383Z,26.92
2022-11-17T23:14:24.196Z,24.05
2022-11-17T23:16:52.606Z,24.55
2022-11-17T23:19:21.392Z,28.30
2022-11-17T23:21:49.836Z,26.60
2022-11-17T23:24:18.636Z,25.70
2022-11-17T23:26:47.133Z,26.38
2022-11-17T23:29:17.516Z,26.20
2022-11-17T23:31:46.409Z,25.60
2022-11-17T23:34:15.246Z,22.38
2022-11-17T23:36:43.874Z,24.40
2022-11-17T23:39:12.732Z,21.52
2022-11-17T23:41:41.183Z,25.02
2022-11-17T23:44:11.593Z,25.30
2022-11-17T23:46:40.344Z,24.92
2022-11-17T23:49:09.190Z,27.92
2022-11-17T23:51:37.667Z,26.05
2022-11-17T23:54:06.534Z,28.50
2022-11-17T23:56:35.065Z,21.60
2022-11-17T23:59:05.132Z,27.17
